Time;durP1;ratioP1;P1;durP2;ratioP2;P2;SDS_P1;SDS_P2;PMS_P1;PMS_P2;Temp;Humidity;BMP_temperature;BMP_pressure;BME280_temperature;BME280_humidity;BME280_pressure;Samples;Min_cycle;Max_cycle;Signal;HPM_P1;HPM_P2
2021/04/13 00:02:40;;;;;;;7.18;3.58;;;;;;;;;;5030430;28;20491;-77
2021/04/13 00:05:32;;;;;;;7.80;3.92;;;;;;;;;;5028404;28;20039;-77
2021/04/13 00:08:20;;;;;;;6.85;3.80;;;;;;;;;;5027883;28;20033;-77
2021/04/13 00:11:06;;;;;;;8.00;3.92;;;;;;;;;;5027437;28;20033;-77
2021/04/13 00:13:56;;;;;;;5.55;3.88;;;;;;;;;;5032041;28;20039;-77
2021/04/13 00:16:41;;;;;;;7.13;4.60;;;;;;;;;;5007072;28;20048;-77
2021/04/13 00:19:28;;;;;;;7.68;4.38;;;;;;;;;;5017998;28;20060;-77
2021/04/13 00:22:16;;;;;;;7.30;3.70;;;;;;;;;;5026785;28;20052;-77
2021/04/13 00:25:03;;;;;;;8.40;3.85;;;;;;;;;;5028914;28;20546;-77
2021/04/13 00:27:49;;;;;;;7.25;4.40;;;;;;;;;;5027045;28;20017;-77
2021/04/13 00:30:45;;;;;;;7.18;4.07;;;;;;;;;;5027935;28;20631;-77
2021/04/13 00:33:33;;;;;;;8.07;3.85;;;;;;;;;;5030121;28;20024;-77
2021/04/13 00:36:21;;;;;;;7.25;3.83;;;;;;;;;;5030882;28;20076;-77
2021/04/13 00:39:18;;;;;;;5.60;3.40;;;;;;;;;;5025981;28;20033;-77
2021/04/13 00:42:06;;;;;;;7.65;3.85;;;;;;;;;;5020398;28;20028;-77
2021/04/13 00:44:53;;;;;;;8.05;3.92;;;;;;;;;;5031312;28;20075;-77
2021/04/13 00:47:41;;;;;;;5.68;3.90;;;;;;;;;;5029900;28;20032;-77
2021/04/13 00:50:29;;;;;;;6.10;3.88;;;;;;;;;;5031672;28;20029;-77
2021/04/13 00:53:16;;;;;;;6.55;3.85;;;;;;;;;;5032385;28;20514;-77
2021/04/13 00:56:07;;;;;;;5.53;3.33;;;;;;;;;;5035133;28;20039;-77
2021/04/13 00:59:02;;;;;;;6.82;3.50;;;;;;;;;;5032163;28;20037;-77
2021/04/13 01:01:52;;;;;;;5.88;3.65;;;;;;;;;;5032936;28;20571;-77
2021/04/13 01:04:46;;;;;;;6.80;4.32;;;;;;;;;;5020493;28;20067;-77
2021/04/13 01:07:36;;;;;;;6.82;3.80;;;;;;;;;;5022209;28;20454;-77
2021/04/13 01:10:23;;;;;;;7.68;4.20;;;;;;;;;;5035538;28;20041;-77
2021/04/13 01:13:17;;;;;;;8.18;4.28;;;;;;;;;;5014479;28;20025;-77
2021/04/13 01:16:02;;;;;;;7.80;5.00;;;;;;;;;;5034908;28;20052;-78
2021/04/13 01:18:51;;;;;;;10.48;4.75;;;;;;;;;;5026145;28;20049;-77
2021/04/13 01:21:43;;;;;;;6.75;4.10;;;;;;;;;;5033465;28;20029;-77
2021/04/13 01:24:39;;;;;;;8.57;4.15;;;;;;;;;;5031150;28;20032;-77
2021/04/13 01:27:24;;;;;;;9.43;5.07;;;;;;;;;;5033531;28;20045;-77
2021/04/13 01:30:11;;;;;;;11.70;5.60;;;;;;;;;;5031278;28;20471;-77
2021/04/13 01:33:07;;;;;;;7.07;4.68;;;;;;;;;;5024862;28;20037;-77
2021/04/13 01:35:55;;;;;;;6.85;4.18;;;;;;;;;;5030788;28;20233;-77
2021/04/13 01:38:55;;;;;;;7.05;4.40;;;;;;;;;;5012944;28;20122;-77
2021/04/13 01:44:42;;;;;;;8.43;4.47;;;;;;;;;;5031570;28;20028;-77
2021/04/13 01:47:27;;;;;;;8.20;4.30;;;;;;;;;;5033190;28;20045;-79
2021/04/13 01:50:15;;;;;;;7.22;4.57;;;;;;;;;;5028352;28;20028;-76
2021/04/13 01:53:09;;;;;;;6.20;4.35;;;;;;;;;;5034020;28;20029;-77
2021/04/13 01:55:57;;;;;;;8.05;4.45;;;;;;;;;;5031924;28;20047;-79
2021/04/13 01:58:52;;;;;;;7.47;3.80;;;;;;;;;;5027724;28;20521;-79
2021/04/13 02:01:39;;;;;;;8.15;4.80;;;;;;;;;;5029483;28;20112;-77
2021/04/13 02:04:30;;;;;;;7.90;5.25;;;;;;;;;;5031922;28;20021;-78
2021/04/13 02:10:44;;;;;;;13.05;5.15;;;;;;;;;;5028945;28;20202;-78
2021/04/13 02:13:34;;;;;;;5.95;3.97;;;;;;;;;;5031629;28;20116;-78
2021/04/13 02:16:21;;;;;;;8.40;5.07;;;;;;;;;;5028980;28;20097;-77
2021/04/13 02:19:08;;;;;;;8.90;5.57;;;;;;;;;;5032403;28;20021;-77
2021/04/13 02:22:01;;;;;;;12.00;6.78;;;;;;;;;;5029956;28;20060;-77
2021/04/13 02:24:46;;;;;;;8.20;5.55;;;;;;;;;;5029651;28;20025;-77
2021/04/13 02:27:37;;;;;;;9.52;5.55;;;;;;;;;;5031381;28;20043;-77
2021/04/13 02:30:31;;;;;;;11.55;4.97;;;;;;;;;;5034449;28;20112;-78
2021/04/13 02:33:17;;;;;;;7.35;4.68;;;;;;;;;;5030474;28;20030;-77
2021/04/13 02:36:10;;;;;;;7.13;4.03;;;;;;;;;;5030304;28;20044;-77
2021/04/13 02:38:56;;;;;;;9.38;4.90;;;;;;;;;;5030575;28;20023;-77
2021/04/13 02:41:48;;;;;;;6.97;4.82;;;;;;;;;;5031191;28;20086;-77
2021/04/13 02:44:33;;;;;;;10.45;5.75;;;;;;;;;;5031974;28;20043;-77
2021/04/13 02:47:18;;;;;;;9.80;5.25;;;;;;;;;;5028724;28;20033;-77
2021/04/13 02:50:05;;;;;;;9.80;5.35;;;;;;;;;;5032887;28;20091;-77
2021/04/13 02:52:51;;;;;;;9.80;5.95;;;;;;;;;;5025948;28;20075;-77
2021/04/13 02:55:38;;;;;;;9.57;6.22;;;;;;;;;;5032178;28;20574;-77
2021/04/13 02:58:30;;;;;;;7.60;4.60;;;;;;;;;;5024004;28;20038;-77
2021/04/13 03:01:16;;;;;;;10.45;5.47;;;;;;;;;;5032816;28;20028;-78
2021/04/13 03:04:06;;;;;;;9.90;4.82;;;;;;;;;;5029857;28;20020;-77
2021/04/13 03:06:53;;;;;;;7.75;4.82;;;;;;;;;;5031885;28;20032;-77
2021/04/13 03:09:39;;;;;;;8.38;5.38;;;;;;;;;;5031584;28;20115;-77
2021/04/13 03:12:25;;;;;;;9.10;5.18;;;;;;;;;;5029011;28;20124;-78
2021/04/13 03:15:11;;;;;;;9.07;5.50;;;;;;;;;;5032886;28;20019;-79
2021/04/13 03:17:59;;;;;;;8.45;5.30;;;;;;;;;;5029332;28;20083;-79
2021/04/13 03:20:46;;;;;;;7.82;5.05;;;;;;;;;;5031079;28;20100;-78
2021/04/13 03:23:32;;;;;;;8.90;4.95;;;;;;;;;;5027647;28;20384;-77
2021/04/13 03:26:22;;;;;;;8.82;4.75;;;;;;;;;;5031269;28;20028;-78
2021/04/13 03:29:12;;;;;;;7.25;4.53;;;;;;;;;;5025082;28;20032;-78
2021/04/13 03:31:59;;;;;;;6.65;4.40;;;;;;;;;;5032461;28;20028;-78
2021/04/13 03:34:44;;;;;;;7.10;4.53;;;;;;;;;;5029664;28;20483;-78
2021/04/13 03:37:30;;;;;;;8.55;5.20;;;;;;;;;;5032380;28;20116;-78
2021/04/13 03:40:17;;;;;;;8.73;5.20;;;;;;;;;;5027302;28;20025;-77
2021/04/13 03:43:04;;;;;;;14.05;5.72;;;;;;;;;;5032526;28;20104;-78
2021/04/13 03:45:50;;;;;;;8.00;5.30;;;;;;;;;;5015594;28;20059;-77
2021/04/13 03:48:36;;;;;;;9.95;4.90;;;;;;;;;;5028364;28;20044;-77
2021/04/13 03:51:24;;;;;;;7.95;5.53;;;;;;;;;;5031239;28;20044;-77
2021/04/13 03:54:17;;;;;;;7.55;5.35;;;;;;;;;;5028777;28;20104;-77
2021/04/13 03:57:03;;;;;;;9.95;5.43;;;;;;;;;;5031685;28;20045;-77
2021/04/13 03:59:53;;;;;;;8.27;5.88;;;;;;;;;;5028255;28;20164;-77
2021/04/13 04:02:39;;;;;;;8.55;5.30;;;;;;;;;;5028617;28;20589;-77
2021/04/13 04:05:25;;;;;;;7.38;4.20;;;;;;;;;;5028944;28;20764;-77
2021/04/13 04:08:15;;;;;;;9.85;5.28;;;;;;;;;;5031410;28;20121;-77
2021/04/13 04:11:00;;;;;;;;;;;;;;;;;;5026532;28;20482;-77
2021/04/13 04:13:47;;;;;;;10.02;5.90;;;;;;;;;;5025421;28;19920;-78
2021/04/13 04:16:33;;;;;;;8.80;5.13;;;;;;;;;;5029181;28;20035;-77
2021/04/13 04:19:23;;;;;;;9.25;5.55;;;;;;;;;;5029126;28;20021;-77
2021/04/13 04:22:14;;;;;;;12.00;5.75;;;;;;;;;;5028310;28;20078;-77
2021/04/13 04:25:18;;;;;;;9.25;5.38;;;;;;;;;;5028205;28;20104;-78
2021/04/13 04:28:15;;;;;;;9.35;6.03;;;;;;;;;;5029730;28;20028;-78
2021/04/13 04:31:19;;;;;;;10.05;5.47;;;;;;;;;;5025322;28;20395;-78
2021/04/13 04:34:14;;;;;;;10.93;6.43;;;;;;;;;;5027132;28;20032;-77
2021/04/13 04:36:59;;;;;;;10.60;5.95;;;;;;;;;;5019141;28;20060;-78
2021/04/13 04:39:44;;;;;;;10.02;5.78;;;;;;;;;;5025369;28;20029;-77
2021/04/13 04:42:30;;;;;;;12.13;6.13;;;;;;;;;;5027443;28;20032;-78
2021/04/13 04:45:17;;;;;;;10.60;6.18;;;;;;;;;;5030491;28;20033;-79
2021/04/13 04:48:21;;;;;;;9.70;5.97;;;;;;;;;;5026091;28;20076;-76
2021/04/13 04:51:08;;;;;;;10.90;5.90;;;;;;;;;;5028238;28;20036;-77
2021/04/13 04:53:53;;;;;;;8.55;5.43;;;;;;;;;;5022940;28;20096;-77
2021/04/13 04:56:38;;;;;;;10.95;5.95;;;;;;;;;;5028563;28;20068;-77
2021/04/13 04:59:24;;;;;;;11.85;6.40;;;;;;;;;;5029185;28;20033;-78
2021/04/13 05:02:09;;;;;;;9.15;6.10;;;;;;;;;;5026441;28;20073;-77
2021/04/13 05:04:54;;;;;;;10.63;6.25;;;;;;;;;;5031637;28;20091;-79
2021/04/13 05:07:40;;;;;;;13.13;7.20;;;;;;;;;;5021592;28;20037;-78
2021/04/13 05:10:25;;;;;;;8.40;5.88;;;;;;;;;;5023690;28;20028;-78
2021/04/13 05:13:10;;;;;;;11.27;6.53;;;;;;;;;;5029526;28;20029;-77
2021/04/13 05:15:56;;;;;;;12.85;5.88;;;;;;;;;;5030509;28;20051;-79
2021/04/13 05:18:41;;;;;;;10.65;6.03;;;;;;;;;;5026011;28;20086;-80
2021/04/13 05:21:26;;;;;;;11.63;5.93;;;;;;;;;;5032060;28;20028;-79
2021/04/13 05:24:11;;;;;;;11.20;6.40;;;;;;;;;;5027899;28;20422;-79
2021/04/13 05:26:56;;;;;;;11.52;5.63;;;;;;;;;;5030832;28;20241;-78
2021/04/13 05:29:42;;;;;;;10.93;6.70;;;;;;;;;;5027370;28;20021;-79
2021/04/13 05:32:27;;;;;;;10.88;6.18;;;;;;;;;;5032732;28;20028;-78
2021/04/13 05:35:13;;;;;;;10.80;6.78;;;;;;;;;;5034318;28;20036;-79
2021/04/13 05:38:06;;;;;;;8.85;5.85;;;;;;;;;;5033184;28;20426;-80
2021/04/13 05:40:52;;;;;;;12.48;7.18;;;;;;;;;;5025158;28;20040;-79
2021/04/13 05:43:38;;;;;;;9.48;5.82;;;;;;;;;;5030426;28;20032;-78
2021/04/13 05:46:25;;;;;;;27.00;17.95;;;;;;;;;;5032917;28;20031;-78
2021/04/13 05:49:10;;;;;;;28.50;18.17;;;;;;;;;;5035085;28;20075;-79
2021/04/13 05:51:55;;;;;;;12.48;7.25;;;;;;;;;;5032207;28;20033;-78
2021/04/13 05:54:40;;;;;;;12.02;6.80;;;;;;;;;;5029490;28;20033;-77
2021/04/13 05:57:30;;;;;;;11.80;7.07;;;;;;;;;;5031582;28;20045;-78
2021/04/13 06:00:16;;;;;;;9.60;6.20;;;;;;;;;;5030658;28;20499;-78
2021/04/13 06:03:01;;;;;;;11.75;6.50;;;;;;;;;;5031388;28;20021;-78
2021/04/13 06:05:47;;;;;;;10.65;6.15;;;;;;;;;;5031327;28;20048;-79
2021/04/13 06:08:32;;;;;;;10.27;6.60;;;;;;;;;;5033744;28;20025;-78
2021/04/13 06:11:19;;;;;;;12.32;6.50;;;;;;;;;;5028946;28;20025;-78
2021/04/13 06:14:04;;;;;;;12.60;6.78;;;;;;;;;;5031590;28;20053;-78
2021/04/13 06:16:50;;;;;;;10.25;6.07;;;;;;;;;;5032247;28;20021;-78
2021/04/13 06:19:36;;;;;;;8.70;5.75;;;;;;;;;;5027712;28;20166;-77
2021/04/13 06:22:21;;;;;;;8.60;6.40;;;;;;;;;;5030804;28;20592;-77
2021/04/13 06:25:06;;;;;;;13.27;6.78;;;;;;;;;;5028605;28;20199;-81
2021/04/13 06:27:52;;;;;;;8.13;5.97;;;;;;;;;;5029709;28;20025;-80
2021/04/13 06:30:41;;;;;;;10.25;5.90;;;;;;;;;;5015790;28;20047;-78
2021/04/13 06:33:28;;;;;;;7.50;5.43;;;;;;;;;;5031944;28;20075;-78
2021/04/13 06:36:19;;;;;;;13.25;6.53;;;;;;;;;;5028073;28;20024;-77
2021/04/13 06:39:05;;;;;;;12.27;5.88;;;;;;;;;;5029419;28;20657;-78
2021/04/13 06:42:04;;;;;;;10.13;5.85;;;;;;;;;;5026395;28;20088;-78
2021/04/13 06:45:07;;;;;;;10.68;6.65;;;;;;;;;;5030462;28;20028;-78
2021/04/13 06:48:11;;;;;;;12.18;6.65;;;;;;;;;;5030027;28;20388;-78
2021/04/13 06:51:03;;;;;;;11.00;7.82;;;;;;;;;;5027259;28;20017;-82
2021/04/13 06:54:04;;;;;;;15.32;9.63;;;;;;;;;;5028810;28;20445;-82
2021/04/13 06:57:06;;;;;;;15.45;11.35;;;;;;;;;;5007941;28;20594;-83
2021/04/13 07:00:04;;;;;;;10.85;8.68;;;;;;;;;;5028557;28;20057;-83
2021/04/13 07:03:08;;;;;;;11.85;7.85;;;;;;;;;;5019066;28;20491;-84
2021/04/13 07:06:16;;;;;;;11.48;7.50;;;;;;;;;;5026635;28;20033;-83
2021/04/13 07:09:07;;;;;;;10.88;7.65;;;;;;;;;;5023605;28;20097;-83
2021/04/13 07:12:07;;;;;;;8.95;7.30;;;;;;;;;;5030996;28;20025;-84
2021/04/13 07:15:11;;;;;;;11.43;6.82;;;;;;;;;;5029295;28;20072;-82
2021/04/13 07:18:02;;;;;;;10.27;7.43;;;;;;;;;;5029891;28;20044;-85
2021/04/13 07:20:52;;;;;;;10.35;7.03;;;;;;;;;;5019924;28;20036;-82
2021/04/13 07:23:42;;;;;;;11.45;8.52;;;;;;;;;;5014061;28;20040;-82
2021/04/13 07:26:31;;;;;;;11.32;8.15;;;;;;;;;;5019324;28;20107;-82
2021/04/13 07:29:27;;;;;;;12.05;8.52;;;;;;;;;;5030101;28;20053;-82
2021/04/13 07:32:20;;;;;;;15.20;8.85;;;;;;;;;;5024747;28;20033;-82
2021/04/13 07:35:07;;;;;;;11.80;8.77;;;;;;;;;;5029169;28;20052;-82
2021/04/13 07:37:53;;;;;;;13.35;9.43;;;;;;;;;;5028356;28;20087;-82
2021/04/13 07:40:39;;;;;;;11.30;8.20;;;;;;;;;;5028507;28;20495;-81
2021/04/13 07:43:35;;;;;;;15.85;8.75;;;;;;;;;;5016342;28;20025;-82
2021/04/13 07:46:23;;;;;;;14.95;10.48;;;;;;;;;;5030194;28;20033;-81
2021/04/13 07:49:13;;;;;;;12.48;9.93;;;;;;;;;;5029674;28;20024;-81
2021/04/13 07:52:19;;;;;;;13.00;9.52;;;;;;;;;;5023506;28;20021;-82
2021/04/13 07:55:23;;;;;;;11.45;8.68;;;;;;;;;;5019993;28;20030;-83
2021/04/13 07:58:24;;;;;;;13.10;9.55;;;;;;;;;;5019847;28;20065;-82
2021/04/13 08:01:09;;;;;;;13.20;10.55;;;;;;;;;;5024316;28;20025;-81
2021/04/13 08:03:55;;;;;;;13.65;9.95;;;;;;;;;;5020014;28;20033;-82
2021/04/13 08:06:42;;;;;;;14.25;10.50;;;;;;;;;;5024758;28;20421;-82
2021/04/13 08:09:37;;;;;;;13.00;10.82;;;;;;;;;;5018968;28;20040;-82
2021/04/13 08:12:28;;;;;;;11.05;9.50;;;;;;;;;;5021911;28;20105;-82
2021/04/13 08:15:15;;;;;;;13.32;10.82;;;;;;;;;;5018346;28;20092;-82
2021/04/13 08:18:05;;;;;;;14.18;11.57;;;;;;;;;;5024474;28;20496;-78
2021/04/13 08:20:50;;;;;;;13.68;10.93;;;;;;;;;;5023793;28;20021;-81
2021/04/13 08:23:37;;;;;;;14.80;11.88;;;;;;;;;;5022585;28;20071;-81
2021/04/13 08:26:34;;;;;;;16.13;13.23;;;;;;;;;;5021241;28;20061;-82
2021/04/13 08:29:39;;;;;;;15.75;12.95;;;;;;;;;;5021107;28;20021;-81
2021/04/13 08:32:52;;;;;;;13.68;11.80;;;;;;;;;;5021131;28;20056;-83
2021/04/13 08:35:56;;;;;;;14.55;10.45;;;;;;;;;;5022324;28;20120;-82
2021/04/13 08:38:55;;;;;;;15.40;12.45;;;;;;;;;;5017026;28;20060;-84
2021/04/13 08:41:45;;;;;;;18.45;13.13;;;;;;;;;;5020993;28;20243;-83
2021/04/13 08:44:37;;;;;;;23.10;17.45;;;;;;;;;;5022652;28;20029;-87
2021/04/13 08:47:35;;;;;;;15.18;12.35;;;;;;;;;;5016857;28;20032;-90
2021/04/13 08:50:29;;;;;;;15.90;11.95;;;;;;;;;;5022484;28;20029;-87
2021/04/13 08:53:27;;;;;;;14.98;11.13;;;;;;;;;;5011369;28;20066;-85
2021/04/13 08:56:20;;;;;;;19.10;12.15;;;;;;;;;;5019225;28;20037;-85
2021/04/13 08:59:06;;;;;;;12.77;9.40;;;;;;;;;;5026951;28;20036;-85
2021/04/13 09:02:06;;;;;;;10.93;8.52;;;;;;;;;;5027433;28;20056;-85
2021/04/13 09:05:00;;;;;;;12.32;11.02;;;;;;;;;;5022244;28;20392;-85
2021/04/13 09:07:45;;;;;;;10.23;8.43;;;;;;;;;;5030241;28;20041;-84
2021/04/13 09:10:42;;;;;;;11.77;8.73;;;;;;;;;;5034686;28;20025;-84
2021/04/13 09:13:30;;;;;;;10.00;8.38;;;;;;;;;;5032965;28;20036;-84
2021/04/13 09:16:21;;;;;;;11.38;8.95;;;;;;;;;;5036371;28;20103;-84
2021/04/13 09:19:08;;;;;;;11.88;8.98;;;;;;;;;;5035292;28;20094;-86
2021/04/13 09:21:53;;;;;;;12.88;10.18;;;;;;;;;;5028502;28;20010;-83
2021/04/13 09:24:40;;;;;;;11.60;9.70;;;;;;;;;;5033114;28;20029;-84
2021/04/13 09:27:42;;;;;;;14.15;10.75;;;;;;;;;;5024905;28;20032;-84
2021/04/13 09:30:28;;;;;;;13.23;9.70;;;;;;;;;;5034458;28;20044;-85
2021/04/13 09:33:28;;;;;;;12.50;8.73;;;;;;;;;;5018287;28;20025;-84
2021/04/13 09:36:19;;;;;;;10.45;8.57;;;;;;;;;;5034459;28;20416;-83
2021/04/13 09:39:10;;;;;;;12.23;8.10;;;;;;;;;;5029768;28;20032;-83
2021/04/13 09:42:12;;;;;;;10.43;8.40;;;;;;;;;;5034119;28;20033;-83
2021/04/13 09:45:16;;;;;;;9.02;6.63;;;;;;;;;;5035048;28;20543;-84
2021/04/13 09:48:19;;;;;;;9.25;6.43;;;;;;;;;;5030787;28;20025;-85
2021/04/13 09:51:13;;;;;;;10.23;6.82;;;;;;;;;;5032255;28;20021;-83
2021/04/13 09:54:06;;;;;;;19.17;12.75;;;;;;;;;;5025667;28;20387;-84
2021/04/13 09:56:51;;;;;;;12.57;6.80;;;;;;;;;;5025884;28;20399;-84
2021/04/13 09:59:36;;;;;;;10.48;7.32;;;;;;;;;;5020963;28;20468;-84
2021/04/13 10:02:33;;;;;;;8.55;6.10;;;;;;;;;;5025509;28;20032;-83
2021/04/13 10:05:24;;;;;;;10.40;7.22;;;;;;;;;;5017652;28;20037;-84
2021/04/13 10:08:09;;;;;;;8.65;6.75;;;;;;;;;;5023963;28;20048;-83
2021/04/13 10:11:07;;;;;;;9.98;6.30;;;;;;;;;;5020168;28;20052;-84
2021/04/13 10:14:21;;;;;;;6.60;5.85;;;;;;;;;;5025563;28;20036;-84
2021/04/13 10:17:16;;;;;;;8.63;6.93;;;;;;;;;;5022415;28;20090;-83
2021/04/13 10:20:12;;;;;;;8.93;7.20;;;;;;;;;;5017989;28;20064;-82
2021/04/13 10:23:00;;;;;;;9.90;6.95;;;;;;;;;;5025096;28;20068;-85
2021/04/13 10:25:45;;;;;;;9.20;7.60;;;;;;;;;;5019129;28;20056;-82
2021/04/13 10:28:37;;;;;;;11.45;7.68;;;;;;;;;;5024497;28;20057;-83
2021/04/13 10:31:40;;;;;;;9.07;6.28;;;;;;;;;;5024380;28;20033;-83
2021/04/13 10:34:38;;;;;;;16.02;6.90;;;;;;;;;;5026802;28;20076;-85
2021/04/13 10:37:27;;;;;;;10.35;7.28;;;;;;;;;;5021138;28;20083;-87
2021/04/13 10:40:13;;;;;;;10.55;7.35;;;;;;;;;;5026801;28;20108;-89
2021/04/13 10:43:12;;;;;;;9.07;7.00;;;;;;;;;;5023852;28;20064;-83
2021/04/13 10:46:19;;;;;;;12.38;7.60;;;;;;;;;;5022196;28;20040;-85
2021/04/13 10:49:20;;;;;;;11.75;7.63;;;;;;;;;;5027299;28;20080;-89
2021/04/13 10:52:15;;;;;;;12.98;8.90;;;;;;;;;;5023521;28;20026;-90
2021/04/13 10:55:03;;;;;;;9.52;6.00;;;;;;;;;;5013524;28;20049;-88
2021/04/13 10:57:54;;;;;;;6.93;5.30;;;;;;;;;;5001954;23;20050;-85
2021/04/13 11:01:10;;;;;;;7.93;5.18;;;;;;;;;;4987242;28;20433;-81
2021/04/13 11:04:15;;;;;;;9.10;5.90;;;;;;;;;;4988012;28;20058;-81
2021/04/13 11:07:00;;;;;;;10.63;5.53;;;;;;;;;;4988550;28;20026;-82
2021/04/13 11:10:00;;;;;;;8.38;6.28;;;;;;;;;;4991993;28;20477;-81
2021/04/13 11:13:15;;;;;;;9.13;5.85;;;;;;;;;;4983339;28;20026;-80
2021/04/13 11:16:30;;;;;;;7.82;5.35;;;;;;;;;;4962759;28;20042;-82
2021/04/13 11:19:21;;;;;;;7.57;5.47;;;;;;;;;;4992901;28;20028;-81
2021/04/13 11:22:25;;;;;;;9.50;5.70;;;;;;;;;;4991233;28;20030;-80
2021/04/13 11:25:14;;;;;;;7.32;5.03;;;;;;;;;;4996822;28;20416;-80
2021/04/13 11:28:27;;;;;;;7.65;5.57;;;;;;;;;;4925725;29;20083;-81
2021/04/13 11:31:21;;;;;;;7.25;5.80;;;;;;;;;;4992084;28;20072;-81
2021/04/13 11:34:26;;;;;;;6.30;4.40;;;;;;;;;;4992634;28;20376;-81
2021/04/13 11:37:17;;;;;;;6.57;5.22;;;;;;;;;;4990719;28;20116;-82
2021/04/13 11:40:21;;;;;;;6.85;5.15;;;;;;;;;;4989661;28;20041;-87
2021/04/13 11:43:10;;;;;;;6.32;4.80;;;;;;;;;;4995271;28;20042;-84
2021/04/13 11:46:26;;;;;;;7.50;5.13;;;;;;;;;;4988455;28;20029;-85
2021/04/13 11:49:14;;;;;;;7.65;5.72;;;;;;;;;;4971447;28;20125;-85
2021/04/13 11:52:11;;;;;;;7.78;5.60;;;;;;;;;;4992353;28;20366;-85
2021/04/13 11:54:59;;;;;;;11.38;7.13;;;;;;;;;;4992608;28;20018;-84
2021/04/13 11:58:06;;;;;;;9.80;6.00;;;;;;;;;;4998088;28;20536;-84
2021/04/13 12:01:18;;;;;;;7.07;5.03;;;;;;;;;;4989496;28;20022;-85
2021/04/13 12:04:08;;;;;;;7.35;5.20;;;;;;;;;;4989797;28;20152;-85
2021/04/13 12:07:04;;;;;;;6.53;5.65;;;;;;;;;;4986535;28;20030;-84
2021/04/13 12:10:00;;;;;;;6.75;5.15;;;;;;;;;;4996048;28;20026;-84
2021/04/13 12:12:54;;;;;;;7.82;5.20;;;;;;;;;;4972640;28;20153;-84
2021/04/13 12:15:54;;;;;;;9.57;5.13;;;;;;;;;;4979118;28;20033;-85
2021/04/13 12:18:39;;;;;;;5.45;4.63;;;;;;;;;;4982253;28;20484;-85
2021/04/13 12:21:25;;;;;;;6.90;5.28;;;;;;;;;;4987968;28;20026;-84
2021/04/13 12:24:42;;;;;;;9.25;5.90;;;;;;;;;;4983127;28;20354;-84
2021/04/13 12:27:30;;;;;;;10.40;5.57;;;;;;;;;;4985008;28;20053;-84
2021/04/13 12:30:21;;;;;;;9.60;5.75;;;;;;;;;;4990481;28;20030;-85
2021/04/13 12:33:07;;;;;;;10.52;5.78;;;;;;;;;;4988858;28;20033;-85
2021/04/13 12:35:54;;;;;;;9.43;4.93;;;;;;;;;;4987957;28;20621;-84
2021/04/13 12:38:42;;;;;;;7.35;4.78;;;;;;;;;;4991825;28;20767;-84
2021/04/13 12:41:34;;;;;;;5.93;4.47;;;;;;;;;;4988317;28;20496;-83
2021/04/13 12:44:23;;;;;;;7.80;4.22;;;;;;;;;;4991111;28;20029;-84
2021/04/13 12:47:08;;;;;;;7.32;4.38;;;;;;;;;;4989704;28;20105;-84
2021/04/13 12:49:53;;;;;;;13.32;9.57;;;;;;;;;;4979246;28;20037;-84
2021/04/13 12:52:39;;;;;;;10.30;7.22;;;;;;;;;;4991076;28;20022;-85
2021/04/13 12:55:24;;;;;;;9.48;5.32;;;;;;;;;;4989928;28;20108;-85
2021/04/13 12:58:13;;;;;;;6.80;4.50;;;;;;;;;;4996687;28;20523;-85
2021/04/13 13:00:58;;;;;;;6.45;4.43;;;;;;;;;;4990339;28;20030;-84
2021/04/13 13:03:43;;;;;;;9.35;5.28;;;;;;;;;;4999729;28;20030;-84
2021/04/13 13:06:29;;;;;;;7.82;3.95;;;;;;;;;;4989507;28;20030;-84
2021/04/13 13:09:25;;;;;;;8.20;3.42;;;;;;;;;;4990123;28;20041;-83
2021/04/13 13:12:27;;;;;;;5.90;3.78;;;;;;;;;;4986776;28;20497;-84
2021/04/13 13:15:14;;;;;;;7.78;4.53;;;;;;;;;;4988592;28;20083;-84
2021/04/13 13:18:20;;;;;;;6.72;4.38;;;;;;;;;;4988708;28;20603;-84
2021/04/13 13:21:10;;;;;;;7.72;4.90;;;;;;;;;;4990064;28;20045;-84
2021/04/13 13:23:59;;;;;;;9.25;5.38;;;;;;;;;;5007887;28;20030;-87
2021/04/13 13:26:44;;;;;;;7.57;4.85;;;;;;;;;;4995785;28;20501;-85
2021/04/13 13:29:29;;;;;;;8.40;5.10;;;;;;;;;;4996696;28;20442;-84
2021/04/13 13:32:15;;;;;;;8.05;4.55;;;;;;;;;;4977872;28;20041;-85
2021/04/13 13:35:03;;;;;;;8.05;5.05;;;;;;;;;;4976252;28;20029;-85
2021/04/13 13:37:49;;;;;;;7.55;5.05;;;;;;;;;;4991653;28;20018;-87
2021/04/13 13:40:52;;;;;;;9.15;6.22;;;;;;;;;;4991032;28;20030;-86
2021/04/13 13:43:38;;;;;;;7.10;5.05;;;;;;;;;;4989344;28;20089;-85
2021/04/13 13:46:30;;;;;;;13.90;5.00;;;;;;;;;;4991540;28;20034;-85
2021/04/13 13:49:18;;;;;;;6.72;4.40;;;;;;;;;;4988853;28;20132;-84
2021/04/13 13:52:12;;;;;;;5.05;3.67;;;;;;;;;;4992257;28;20030;-84
2021/04/13 13:55:04;;;;;;;5.70;3.95;;;;;;;;;;4996016;28;20049;-83
2021/04/13 13:58:00;;;;;;;6.35;3.58;;;;;;;;;;4991339;28;20049;-83
2021/04/13 14:00:46;;;;;;;9.45;4.10;;;;;;;;;;4996096;28;20034;-84
2021/04/13 14:03:41;;;;;;;31.98;21.00;;;;;;;;;;4993049;28;20156;-82
2021/04/13 14:06:28;;;;;;;6.63;4.32;;;;;;;;;;4991622;28;20033;-84
2021/04/13 14:09:15;;;;;;;4.68;3.17;;;;;;;;;;4982964;28;20025;-86
2021/04/13 14:12:19;;;;;;;3.65;2.33;;;;;;;;;;5003496;28;20495;-85
2021/04/13 14:15:12;;;;;;;6.18;3.45;;;;;;;;;;4996000;28;20025;-86
2021/04/13 14:18:02;;;;;;;7.82;3.58;;;;;;;;;;5000828;28;20065;-83
2021/04/13 14:21:09;;;;;;;3.83;3.10;;;;;;;;;;4993426;28;20034;-84
2021/04/13 14:24:07;;;;;;;5.57;3.08;;;;;;;;;;4992512;28;20044;-83
2021/04/13 14:27:07;;;;;;;4.72;3.35;;;;;;;;;;4993956;28;20033;-84
2021/04/13 14:29:56;;;;;;;7.75;3.70;;;;;;;;;;4976306;28;20456;-85
2021/04/13 14:32:41;;;;;;;6.03;3.58;;;;;;;;;;4988664;28;20030;-83
2021/04/13 14:35:26;;;;;;;5.85;3.63;;;;;;;;;;4976444;28;20066;-83
2021/04/13 14:38:15;;;;;;;4.88;3.67;;;;;;;;;;4985955;28;20162;-84
2021/04/13 14:41:00;;;;;;;5.95;3.78;;;;;;;;;;4993735;28;20501;-82
2021/04/13 14:43:45;;;;;;;6.05;3.28;;;;;;;;;;4992252;28;20109;-83
2021/04/13 14:46:31;;;;;;;4.43;3.03;;;;;;;;;;4990244;28;20041;-84
2021/04/13 14:49:17;;;;;;;4.47;2.72;;;;;;;;;;4992331;28;20116;-84
2021/04/13 14:52:03;;;;;;;5.70;2.60;;;;;;;;;;4990230;28;20376;-83
2021/04/13 14:54:48;;;;;;;4.55;2.63;;;;;;;;;;4986007;28;20392;-84
2021/04/13 14:57:33;;;;;;;40.53;26.13;;;;;;;;;;4990679;28;20049;-85
2021/04/13 15:00:20;;;;;;;12.13;5.75;;;;;;;;;;4985506;28;20022;-83
2021/04/13 15:03:07;;;;;;;4.72;2.83;;;;;;;;;;4988757;28;20101;-82
2021/04/13 15:05:52;;;;;;;5.10;3.55;;;;;;;;;;4985928;28;20528;-83
2021/04/13 15:08:37;;;;;;;5.60;3.58;;;;;;;;;;4992605;28;20018;-83
2021/04/13 15:11:23;;;;;;;7.90;3.00;;;;;;;;;;4993372;28;20030;-82
2021/04/13 15:14:08;;;;;;;5.65;3.15;;;;;;;;;;4991605;28;20053;-82
2021/04/13 15:16:53;;;;;;;5.32;3.53;;;;;;;;;;4994110;28;20038;-84
2021/04/13 15:19:39;;;;;;;5.22;3.10;;;;;;;;;;4988747;28;20025;-83
2021/04/13 15:22:28;;;;;;;4.97;3.70;;;;;;;;;;5003078;28;20033;-83
2021/04/13 15:25:18;;;;;;;6.47;4.03;;;;;;;;;;4976068;28;20025;-83
2021/04/13 15:28:05;;;;;;;6.43;3.90;;;;;;;;;;4989637;28;20054;-82
2021/04/13 15:30:50;;;;;;;4.72;3.80;;;;;;;;;;4999504;28;20039;-84
2021/04/13 15:33:51;;;;;;;5.50;3.75;;;;;;;;;;4992431;28;20921;-80
2021/04/13 15:36:52;;;;;;;4.20;3.35;;;;;;;;;;4990420;28;20022;-82
2021/04/13 15:39:58;;;;;;;6.13;3.20;;;;;;;;;;4993499;28;20037;-86
2021/04/13 15:43:18;;;;;;;5.90;3.60;;;;;;;;;;4993430;28;20030;-83
2021/04/13 15:46:20;;;;;;;7.90;4.78;;;;;;;;;;4929821;28;20073;-84
2021/04/13 15:49:23;;;;;;;12.63;7.80;;;;;;;;;;4989498;28;20030;-84
2021/04/13 15:52:21;;;;;;;;;;;;;;;;;;;;;
2021/04/13 15:55:33;;;;;;;9.63;4.28;;;;;;;;;;4989226;28;20018;-87
2021/04/13 15:58:31;;;;;;;6.30;3.80;;;;;;;;;;4976667;28;20093;-86
2021/04/13 16:01:23;;;;;;;4.82;3.67;;;;;;;;;;4969443;28;20052;-84
2021/04/13 16:04:10;;;;;;;5.03;3.80;;;;;;;;;;4972749;28;20054;-84
2021/04/13 16:07:12;;;;;;;6.93;4.07;;;;;;;;;;4968206;28;20500;-85
2021/04/13 16:13:06;;;;;;;6.20;3.65;;;;;;;;;;4971515;28;20050;-85
2021/04/13 16:15:52;;;;;;;9.75;4.88;;;;;;;;;;4968534;28;20030;-84
2021/04/13 16:18:37;;;;;;;27.60;17.50;;;;;;;;;;4971465;28;20434;-86
2021/04/13 16:21:24;;;;;;;6.20;3.53;;;;;;;;;;4970669;28;20489;-85
2021/04/13 16:24:14;;;;;;;5.25;3.70;;;;;;;;;;4980735;28;20037;-84
2021/04/13 16:26:59;;;;;;;4.55;3.17;;;;;;;;;;4970577;28;20038;-84
2021/04/13 16:29:48;;;;;;;4.50;3.05;;;;;;;;;;4971983;28;20385;-84
2021/04/13 16:32:34;;;;;;;6.03;2.88;;;;;;;;;;4968807;28;20030;-85
2021/04/13 16:35:47;;;;;;;6.38;3.50;;;;;;;;;;4964564;28;20116;-85
2021/04/13 16:38:36;;;;;;;5.63;3.72;;;;;;;;;;4952856;28;20026;-86
2021/04/13 16:41:21;;;;;;;5.05;3.00;;;;;;;;;;4983608;28;20061;-85
2021/04/13 16:44:07;;;;;;;8.85;3.75;;;;;;;;;;4969180;28;20030;-84
2021/04/13 16:46:53;;;;;;;7.85;4.13;;;;;;;;;;4971533;28;20051;-85
2021/04/13 16:49:38;;;;;;;4.57;3.47;;;;;;;;;;4970791;28;20034;-86
2021/04/13 16:52:25;;;;;;;9.45;3.33;;;;;;;;;;4971808;28;20026;-86
2021/04/13 16:55:12;;;;;;;5.93;3.70;;;;;;;;;;4971202;28;20049;-87
2021/04/13 16:57:57;;;;;;;6.35;3.63;;;;;;;;;;4991197;28;20429;-85
2021/04/13 17:00:43;;;;;;;6.43;3.45;;;;;;;;;;4973791;28;20037;-84
2021/04/13 17:03:28;;;;;;;4.65;3.05;;;;;;;;;;4972280;28;20033;-85
2021/04/13 17:06:19;;;;;;;7.57;3.50;;;;;;;;;;4971471;28;20512;-83
2021/04/13 17:09:05;;;;;;;4.43;3.30;;;;;;;;;;4973929;28;20112;-85
2021/04/13 17:12:03;;;;;;;4.97;3.15;;;;;;;;;;4974400;28;20038;-84